Matucana, Peru
Current Conditions -  °F | °C
As of 10:00 AM on Friday 24 Oct 2014 (Local Time) from SPIM Reporting Station
Overcast Overcast  
Wind Chill: 66°   Ceiling: 2200
Heat Index: 66°   Visibility: 6mi
Dew Point: 57°   Wind: 9mph
Humidity: 73%   Direction: 180°S
Pressure: 29.97"   Gusts: NA
Location:  11.85°S, 76.4°W
Report Text: SPIM 241500Z 18008KT 9999 SCT014 OVC022 19/14 Q1015 NOSIG RMK BIRD HAZARD RWY15 PP000
Loading
Personal Weather Stations






























Interactive Weather Map New forecast layout! Learn more

10-Day Weather Forecast

Advertisements
Track Severe Weather on mobile